createdAt,value
2019-04-04T00:03:15.156Z,9.00
2019-04-04T00:08:19.642Z,8.90
2019-04-04T00:13:24.077Z,9.00
2019-04-04T00:18:28.449Z,9.00
2019-04-04T00:23:32.962Z,9.10
2019-04-04T00:28:37.290Z,9.10
2019-04-04T00:33:41.612Z,9.20
2019-04-04T00:38:46.058Z,9.10
2019-04-04T00:43:51.871Z,8.90
2019-04-04T00:48:56.302Z,8.80
2019-04-04T00:54:00.644Z,8.70
2019-04-04T00:59:04.852Z,8.80
2019-04-04T01:04:09.095Z,8.80
2019-04-04T01:09:13.785Z,8.80
2019-04-04T01:14:18.211Z,8.80
2019-04-04T01:19:22.446Z,8.70
2019-04-04T01:24:28.852Z,8.80
2019-04-04T01:29:33.090Z,9.10
2019-04-04T01:34:37.658Z,9.10
2019-04-04T01:39:41.961Z,9.00
2019-04-04T01:44:46.254Z,8.90
2019-04-04T01:49:51.882Z,9.00
2019-04-04T01:54:57.811Z,9.10
2019-04-04T02:00:02.001Z,9.10
2019-04-04T02:05:07.259Z,9.10
2019-04-04T02:10:11.711Z,9.20
2019-04-04T02:15:16.043Z,9.30
2019-04-04T02:20:20.252Z,9.00
2019-04-04T02:25:24.449Z,9.10
2019-04-04T02:30:29.130Z,9.10
2019-04-04T02:35:33.641Z,9.10
2019-04-04T02:40:40.906Z,9.20
2019-04-04T02:45:43.868Z,9.10
2019-04-04T02:50:48.071Z,9.10
2019-04-04T02:55:52.313Z,9.20
2019-04-04T03:00:59.105Z,9.10
2019-04-04T03:06:02.869Z,9.00
2019-04-04T03:11:07.044Z,8.90
2019-04-04T03:16:11.315Z,9.00
2019-04-04T03:21:15.550Z,9.10
2019-04-04T03:26:20.574Z,9.00
2019-04-04T03:31:25.062Z,9.10
2019-04-04T03:36:30.757Z,9.30
2019-04-04T03:41:36.190Z,9.40
2019-04-04T03:46:40.649Z,9.40
2019-04-04T03:51:45.013Z,9.50
2019-04-04T03:56:49.287Z,9.40
2019-04-04T04:01:53.632Z,9.50
2019-04-04T04:06:57.929Z,9.30
2019-04-04T04:12:02.541Z,9.30
2019-04-04T04:17:09.217Z,9.30
2019-04-04T04:22:13.226Z,9.30
2019-04-04T04:27:18.702Z,9.20
2019-04-04T04:32:22.932Z,9.30
2019-04-04T04:37:27.466Z,9.30
2019-04-04T04:42:31.681Z,9.30
2019-04-04T04:47:35.912Z,9.20
2019-04-04T04:52:40.209Z,9.20
2019-04-04T04:57:44.418Z,9.30
2019-04-04T05:02:48.623Z,9.30
2019-04-04T05:07:54.835Z,9.10
2019-04-04T05:12:58.779Z,8.90
2019-04-04T05:18:02.988Z,8.90
2019-04-04T05:23:07.193Z,9.10
2019-04-04T05:28:11.535Z,9.00
2019-04-04T05:33:15.932Z,9.20
2019-04-04T05:38:20.123Z,9.30
2019-04-04T05:43:24.350Z,9.50
2019-04-04T05:48:29.199Z,9.50
2019-04-04T05:53:35.437Z,9.10
2019-04-04T05:58:39.900Z,9.40
2019-04-04T06:03:47.034Z,9.30
2019-04-04T06:08:50.138Z,9.60
2019-04-04T06:13:54.457Z,9.50
2019-04-04T06:18:58.645Z,9.40
2019-04-04T06:24:02.842Z,9.40
2019-04-04T06:29:07.033Z,9.40
2019-04-04T06:34:11.274Z,9.50
2019-04-04T06:39:15.535Z,9.70
2019-04-04T06:44:19.862Z,9.90
2019-04-04T06:49:24.041Z,9.80
2019-04-04T06:54:28.291Z,9.80
2019-04-04T06:59:32.994Z,9.50
2019-04-04T07:04:37.763Z,9.90
2019-04-04T07:09:41.959Z,10.00
2019-04-04T07:14:49.353Z,10.00
2019-04-04T07:19:52.175Z,10.10
2019-04-04T07:24:56.397Z,10.30
2019-04-04T07:30:00.671Z,10.60
2019-04-04T07:35:05.806Z,11.00
2019-04-04T07:40:10.144Z,10.70
2019-04-04T07:45:14.571Z,11.00
2019-04-04T07:50:18.919Z,11.10
2019-04-04T07:55:23.145Z,11.20
2019-04-04T08:00:27.406Z,10.80
2019-04-04T08:05:31.579Z,10.80
2019-04-04T08:10:35.978Z,11.00
2019-04-04T08:15:40.226Z,10.90
2019-04-04T08:20:44.576Z,10.90
2019-04-04T08:25:48.803Z,10.90
2019-04-04T08:30:53.011Z,11.40
2019-04-04T08:36:05.969Z,11.20
2019-04-04T08:41:03.247Z,11.10
2019-04-04T08:46:07.448Z,11.30
2019-04-04T08:51:11.802Z,11.30
2019-04-04T08:56:16.034Z,11.10
2019-04-04T09:01:20.243Z,11.30
2019-04-04T09:06:24.502Z,11.30
2019-04-04T09:11:29.980Z,11.20
2019-04-04T09:16:34.171Z,11.20
2019-04-04T09:21:38.360Z,11.40
2019-04-04T09:26:42.552Z,11.40
2019-04-04T09:31:46.782Z,11.30
2019-04-04T09:36:51.021Z,11.30
2019-04-04T09:41:55.215Z,11.50
2019-04-04T09:47:05.396Z,11.70
2019-04-04T09:52:05.484Z,12.40
2019-04-04T09:57:09.718Z,12.30
2019-04-04T10:02:14.002Z,12.30
2019-04-04T10:07:18.196Z,12.40
2019-04-04T10:17:26.295Z,12.40
2019-04-04T10:22:30.499Z,12.20
2019-04-04T10:27:34.745Z,12.20
2019-04-04T10:32:39.255Z,12.30
2019-04-04T10:37:43.723Z,12.10
2019-04-04T10:42:48.023Z,12.20
2019-04-04T10:47:52.251Z,12.30
2019-04-04T10:52:56.608Z,12.40
2019-04-04T10:58:00.893Z,12.60
2019-04-04T11:03:05.162Z,12.70
2019-04-04T11:08:09.441Z,13.10
2019-04-04T11:13:16.623Z,13.10
2019-04-04T11:18:20.837Z,12.80
2019-04-04T11:23:25.121Z,12.90
2019-04-04T11:28:29.299Z,13.10
2019-04-04T11:33:33.536Z,12.90
2019-04-04T11:38:37.752Z,12.80
2019-04-04T11:43:41.963Z,13.00
2019-04-04T11:48:46.227Z,13.20
2019-04-04T11:53:50.430Z,13.30
2019-04-04T11:58:54.638Z,13.70
2019-04-04T12:03:58.816Z,13.80
2019-04-04T12:09:03.096Z,13.40
2019-04-04T12:14:07.300Z,12.90
2019-04-04T12:19:11.495Z,12.50
2019-04-04T12:24:15.812Z,12.50
2019-04-04T12:29:20.030Z,12.40
2019-04-04T12:34:24.222Z,12.40
2019-04-04T12:39:28.438Z,12.40
2019-04-04T12:44:32.615Z,12.50
2019-04-04T12:49:36.814Z,12.40
2019-04-04T12:54:41.132Z,12.30
2019-04-04T12:59:45.387Z,12.30
2019-04-04T13:04:49.591Z,12.60
2019-04-04T13:09:53.812Z,12.60
2019-04-04T13:14:58.017Z,12.40
2019-04-04T13:20:02.424Z,12.60
2019-04-04T13:25:07.588Z,12.40
2019-04-04T13:30:12.536Z,12.60
2019-04-04T13:35:16.777Z,12.60
2019-04-04T13:40:20.986Z,12.30
2019-04-04T13:45:25.938Z,12.30
2019-04-04T13:50:30.347Z,12.30
2019-04-04T13:55:34.552Z,12.20
2019-04-04T14:00:38.844Z,12.30
2019-04-04T14:05:43.161Z,12.50
2019-04-04T14:10:57.520Z,12.40
2019-04-04T14:15:53.386Z,12.30
2019-04-04T14:21:03.691Z,12.20
2019-04-04T14:26:03.599Z,12.30
2019-04-04T14:31:07.937Z,12.10
2019-04-04T14:36:12.264Z,12.10
2019-04-04T14:41:16.474Z,12.20
2019-04-04T14:46:20.819Z,12.20
2019-04-04T14:51:25.050Z,12.10
2019-04-04T14:56:29.310Z,12.20
2019-04-04T15:01:35.063Z,12.20
2019-04-04T15:06:39.585Z,12.00
2019-04-04T15:11:43.810Z,11.80
2019-04-04T15:16:48.101Z,11.90
2019-04-04T15:21:52.334Z,11.90
2019-04-04T15:26:56.539Z,12.00
2019-04-04T15:32:00.767Z,12.10
2019-04-04T15:37:05.053Z,12.10
2019-04-04T15:42:09.274Z,12.10
2019-04-04T15:47:13.479Z,12.20
2019-04-04T15:52:18.372Z,11.90
2019-04-04T15:57:22.684Z,12.00
2019-04-04T16:02:26.895Z,12.00
2019-04-04T16:07:31.170Z,12.00
2019-04-04T16:12:35.347Z,12.10
2019-04-04T16:17:39.973Z,12.10
2019-04-04T16:22:44.198Z,12.10
2019-04-04T16:27:48.416Z,12.20
2019-04-04T16:32:52.619Z,12.20
2019-04-04T16:37:56.906Z,12.00
2019-04-04T16:43:01.091Z,12.10
2019-04-04T16:48:05.298Z,12.10
2019-04-04T16:53:09.512Z,12.10
2019-04-04T16:58:13.738Z,12.00
2019-04-04T17:03:18.098Z,11.80
2019-04-04T17:08:22.323Z,11.60
2019-04-04T17:13:26.525Z,11.60
2019-04-04T17:18:30.712Z,11.30
2019-04-04T17:23:34.940Z,11.20
2019-04-04T17:28:39.214Z,11.20
2019-04-04T17:33:43.498Z,11.20
2019-04-04T17:38:47.721Z,10.90
2019-04-04T17:43:55.366Z,11.10
2019-04-04T17:48:59.840Z,10.90
2019-04-04T17:54:04.136Z,10.70
2019-04-04T17:59:08.520Z,10.70
2019-04-04T18:04:13.911Z,10.80
2019-04-04T18:09:30.869Z,10.80
2019-04-04T18:14:24.100Z,10.80
2019-04-04T18:19:28.442Z,10.70
2019-04-04T18:24:32.649Z,10.70
2019-04-04T18:29:37.048Z,10.70
2019-04-04T18:34:41.754Z,10.60
2019-04-04T18:39:46.274Z,10.60
2019-04-04T18:44:50.552Z,10.50
2019-04-04T18:49:54.894Z,10.50
2019-04-04T18:54:59.100Z,10.50
2019-04-04T19:00:03.474Z,10.50
2019-04-04T19:05:07.819Z,10.40
2019-04-04T19:10:12.362Z,10.60
2019-04-04T19:15:16.744Z,10.70
2019-04-04T19:20:21.125Z,10.70
2019-04-04T19:25:25.528Z,10.60
2019-04-04T19:30:29.908Z,10.40
2019-04-04T19:35:34.317Z,10.50
2019-04-04T19:40:38.772Z,10.50
2019-04-04T19:45:43.089Z,10.20
2019-04-04T19:50:47.368Z,10.40
2019-04-04T19:55:51.953Z,10.40
2019-04-04T20:00:56.966Z,10.40
2019-04-04T20:06:01.195Z,10.30
2019-04-04T20:11:05.517Z,10.40
2019-04-04T20:16:12.260Z,10.20
2019-04-04T20:21:15.955Z,10.30
2019-04-04T20:26:20.353Z,10.40
2019-04-04T20:31:25.672Z,10.30
2019-04-04T20:36:30.031Z,10.30
2019-04-04T20:41:34.994Z,10.40
2019-04-04T20:46:39.308Z,10.40
2019-04-04T20:51:43.505Z,10.30
2019-04-04T20:56:47.733Z,10.30
2019-04-04T21:01:52.078Z,10.30
2019-04-04T21:06:56.273Z,10.30
2019-04-04T21:12:00.506Z,10.20
2019-04-04T21:17:04.751Z,10.20
2019-04-04T21:22:08.972Z,10.20
2019-04-04T21:27:13.200Z,10.20
2019-04-04T21:32:17.465Z,10.20
2019-04-04T21:37:21.712Z,10.10
2019-04-04T21:42:25.982Z,10.00
2019-04-04T21:47:30.230Z,10.00
2019-04-04T21:52:34.984Z,10.10
2019-04-04T21:57:39.303Z,10.00
2019-04-04T22:02:43.675Z,10.10
2019-04-04T22:07:47.985Z,10.10
2019-04-04T22:12:52.270Z,10.00
2019-04-04T22:17:56.581Z,10.20
2019-04-04T22:23:00.893Z,10.10
2019-04-04T22:28:05.166Z,10.10
2019-04-04T22:33:09.486Z,10.10
2019-04-04T22:38:13.855Z,10.10
2019-04-04T22:43:18.156Z,9.80
2019-04-04T22:48:22.378Z,9.90
2019-04-04T22:53:26.612Z,9.90
2019-04-04T22:58:30.991Z,9.90
2019-04-04T23:03:35.297Z,9.80
2019-04-04T23:08:39.593Z,9.80
2019-04-04T23:13:43.864Z,9.80
2019-04-04T23:18:48.212Z,9.90
